createdAt,value
2022-11-08T00:01:52.538Z,75.90
2022-11-08T00:04:23.335Z,70.80
2022-11-08T00:07:10.658Z,85.00
2022-11-08T00:09:57.899Z,108.50
2022-11-08T00:12:47.064Z,176.40
2022-11-08T00:15:16.332Z,193.70
2022-11-08T00:17:45.031Z,229.80
2022-11-08T00:20:13.615Z,296.00
2022-11-08T00:22:43.472Z,305.10
2022-11-08T00:25:11.998Z,234.30
2022-11-08T00:27:42.963Z,231.70
2022-11-08T00:30:13.479Z,173.10
2022-11-08T00:32:41.794Z,173.40
2022-11-08T00:35:10.473Z,154.70
2022-11-08T00:37:39.305Z,109.50
2022-11-08T00:40:11.446Z,96.80
2022-11-08T00:42:39.948Z,75.50
2022-11-08T00:45:10.133Z,69.90
2022-11-08T00:47:38.701Z,83.80
2022-11-08T00:50:10.028Z,75.20
2022-11-08T00:52:39.973Z,73.70
2022-11-08T00:55:10.806Z,77.00
2022-11-08T00:57:53.912Z,69.00
2022-11-08T01:00:27.641Z,71.30
2022-11-08T01:03:10.957Z,69.40
2022-11-08T01:06:00.438Z,61.90
2022-11-08T01:08:32.693Z,69.20
2022-11-08T01:11:11.862Z,74.10
2022-11-08T01:13:45.025Z,68.30
2022-11-08T01:16:20.013Z,69.60
2022-11-08T01:18:58.182Z,70.60
2022-11-08T01:21:31.570Z,70.60
2022-11-08T01:24:08.523Z,71.60
2022-11-08T01:26:45.545Z,72.80
2022-11-08T01:29:20.561Z,76.40
2022-11-08T01:31:53.234Z,74.00
2022-11-08T01:34:27.258Z,70.70
2022-11-08T01:37:00.730Z,76.70
2022-11-08T01:39:34.189Z,72.40
2022-11-08T01:42:08.800Z,76.90
2022-11-08T01:45:01.889Z,73.50
2022-11-08T01:47:33.677Z,73.70
2022-11-08T01:50:09.713Z,74.80
2022-11-08T01:52:46.610Z,71.70
2022-11-08T01:55:23.700Z,72.20
2022-11-08T01:57:58.938Z,73.90
2022-11-08T02:00:32.896Z,71.90
2022-11-08T02:03:07.267Z,78.20
2022-11-08T02:05:40.717Z,73.30
2022-11-08T02:08:19.509Z,75.00
2022-11-08T02:10:54.736Z,72.10
2022-11-08T02:13:31.593Z,73.30
2022-11-08T02:16:10.795Z,73.30
2022-11-08T02:18:43.150Z,73.60
2022-11-08T02:21:19.930Z,73.40
2022-11-08T02:23:55.489Z,74.80
2022-11-08T02:26:30.495Z,75.70
2022-11-08T02:29:09.850Z,74.30
2022-11-08T02:31:43.569Z,78.60
2022-11-08T02:34:20.218Z,76.50
2022-11-08T02:36:52.856Z,78.50
2022-11-08T02:39:26.636Z,79.70
2022-11-08T02:41:58.707Z,73.70
2022-11-08T02:44:33.509Z,72.40
2022-11-08T02:47:07.516Z,77.70
2022-11-08T02:49:39.809Z,79.30
2022-11-08T02:52:11.921Z,79.00
2022-11-08T02:54:46.162Z,75.20
2022-11-08T02:57:18.333Z,80.20
2022-11-08T02:59:51.017Z,76.50
2022-11-08T03:02:25.766Z,85.60
2022-11-08T03:04:58.293Z,94.20
2022-11-08T03:07:30.089Z,92.20
2022-11-08T03:10:03.032Z,96.60
2022-11-08T03:12:36.385Z,100.20
2022-11-08T03:15:11.661Z,103.50
2022-11-08T03:17:44.922Z,128.90
2022-11-08T03:20:18.494Z,139.00
2022-11-08T03:22:50.719Z,119.00
2022-11-08T03:25:22.887Z,102.40
2022-11-08T03:27:55.063Z,82.70
2022-11-08T03:30:27.636Z,98.70
2022-11-08T03:33:04.124Z,106.90
2022-11-08T03:35:36.634Z,92.90
2022-11-08T03:38:11.085Z,82.70
2022-11-08T03:40:44.506Z,82.90
2022-11-08T03:43:16.820Z,78.40
2022-11-08T03:45:50.109Z,80.00
2022-11-08T03:48:24.882Z,75.90
2022-11-08T03:50:57.314Z,72.90
2022-11-08T03:53:30.354Z,72.20
2022-11-08T03:56:05.331Z,70.70
2022-11-08T03:58:38.892Z,76.90
2022-11-08T04:01:14.111Z,76.40
2022-11-08T04:03:47.936Z,77.60
2022-11-08T04:06:21.648Z,101.90
2022-11-08T04:08:55.403Z,115.60
2022-11-08T04:11:48.516Z,101.10
2022-11-08T04:14:42.331Z,98.80
2022-11-08T04:17:14.740Z,100.30
2022-11-08T04:20:06.340Z,93.70
2022-11-08T04:22:38.535Z,101.50
2022-11-08T04:25:11.823Z,104.60
2022-11-08T04:27:44.397Z,102.50
2022-11-08T04:30:16.980Z,87.90
2022-11-08T04:32:49.972Z,74.10
2022-11-08T04:35:22.002Z,77.00
2022-11-08T04:37:54.168Z,74.50
2022-11-08T04:40:26.697Z,74.80
2022-11-08T04:43:04.546Z,90.20
2022-11-08T04:45:36.731Z,89.10
2022-11-08T04:48:10.617Z,93.70
2022-11-08T04:50:45.275Z,80.60
2022-11-08T04:53:18.284Z,84.00
2022-11-08T04:55:53.353Z,77.00
2022-11-08T04:58:26.761Z,77.60
2022-11-08T05:01:03.507Z,76.80
2022-11-08T05:03:37.565Z,88.20
2022-11-08T05:06:15.076Z,71.10
2022-11-08T05:08:47.402Z,73.20
2022-11-08T05:11:22.607Z,71.50
2022-11-08T05:13:55.658Z,61.20
2022-11-08T05:16:33.046Z,66.20
2022-11-08T05:19:10.494Z,68.90
2022-11-08T05:22:04.527Z,67.70
2022-11-08T05:24:37.797Z,66.70
2022-11-08T05:27:10.068Z,69.90
2022-11-08T05:29:43.456Z,66.70
2022-11-08T05:32:17.225Z,74.80
2022-11-08T05:34:53.210Z,67.70
2022-11-08T05:37:25.056Z,73.00
2022-11-08T05:39:57.230Z,73.50
2022-11-08T05:42:29.584Z,78.40
2022-11-08T05:45:06.565Z,82.80
2022-11-08T05:47:44.673Z,90.00
2022-11-08T05:50:19.500Z,92.40
2022-11-08T05:52:57.096Z,91.00
2022-11-08T05:55:28.955Z,93.60
2022-11-08T05:58:01.539Z,88.00
2022-11-08T06:00:35.960Z,84.70
2022-11-08T06:03:09.027Z,104.30
2022-11-08T06:05:42.528Z,109.30
2022-11-08T06:08:15.305Z,99.30
2022-11-08T06:10:51.529Z,92.10
2022-11-08T06:13:24.811Z,94.40
2022-11-08T06:15:58.043Z,101.80
2022-11-08T06:18:31.371Z,96.50
2022-11-08T06:21:05.040Z,95.80
2022-11-08T06:23:37.926Z,107.10
2022-11-08T06:26:10.784Z,95.90
2022-11-08T06:28:44.347Z,88.30
2022-11-08T06:31:16.673Z,82.10
2022-11-08T06:33:51.228Z,84.90
2022-11-08T06:36:23.699Z,92.10
2022-11-08T06:38:58.716Z,80.90
2022-11-08T06:41:32.605Z,78.60
2022-11-08T06:44:05.649Z,80.70
2022-11-08T06:46:39.633Z,86.80
2022-11-08T06:49:13.218Z,91.50
2022-11-08T06:51:46.297Z,93.10
2022-11-08T06:54:53.169Z,86.40
2022-11-08T06:57:21.823Z,81.30
2022-11-08T06:59:53.181Z,86.30
2022-11-08T07:02:21.972Z,86.70
2022-11-08T07:04:52.587Z,101.60
2022-11-08T07:07:22.949Z,102.80
2022-11-08T07:09:51.442Z,98.30
2022-11-08T07:12:20.076Z,94.60
2022-11-08T07:14:49.218Z,97.00
2022-11-08T07:17:17.812Z,92.80
2022-11-08T07:19:46.169Z,95.80
2022-11-08T07:22:16.049Z,92.90
2022-11-08T07:24:48.574Z,109.10
2022-11-08T07:27:18.564Z,99.10
2022-11-08T07:29:47.503Z,92.90
2022-11-08T07:32:16.796Z,75.40
2022-11-08T07:34:46.549Z,78.60
2022-11-08T07:37:15.133Z,69.50
2022-11-08T07:39:45.385Z,73.90
2022-11-08T07:42:17.177Z,69.60
2022-11-08T07:44:46.223Z,62.70
2022-11-08T07:47:14.697Z,63.90
2022-11-08T07:49:45.552Z,61.80
2022-11-08T07:52:14.862Z,65.60
2022-11-08T07:54:44.435Z,56.50
2022-11-08T07:57:17.493Z,59.20
2022-11-08T07:59:46.675Z,56.50
2022-11-08T08:02:15.850Z,52.50
2022-11-08T08:04:47.100Z,43.80
2022-11-08T08:07:17.935Z,44.30
2022-11-08T08:09:47.827Z,37.70
2022-11-08T08:12:17.310Z,34.60
2022-11-08T08:14:46.264Z,35.00
2022-11-08T08:17:16.369Z,34.60
2022-11-08T08:19:44.750Z,43.30
2022-11-08T08:22:14.356Z,32.20
2022-11-08T08:24:44.055Z,45.10
2022-11-08T08:27:14.977Z,35.70
2022-11-08T08:29:46.248Z,31.80
2022-11-08T08:32:15.635Z,32.90
2022-11-08T08:34:44.309Z,34.20
2022-11-08T08:37:17.365Z,34.00
2022-11-08T08:39:46.959Z,33.30
2022-11-08T08:42:16.861Z,27.60
2022-11-08T08:44:46.537Z,27.90
2022-11-08T08:47:15.256Z,29.10
2022-11-08T08:49:44.109Z,32.20
2022-11-08T08:52:13.961Z,32.10
2022-11-08T08:54:43.031Z,35.00
2022-11-08T08:57:12.654Z,34.40
2022-11-08T09:02:30.466Z,34.00
2022-11-08T09:04:59.241Z,41.90
2022-11-08T09:07:28.246Z,32.90
2022-11-08T09:09:59.021Z,36.20
2022-11-08T09:12:27.593Z,35.80
2022-11-08T09:14:56.999Z,36.30
2022-11-08T09:17:27.855Z,40.50
2022-11-08T09:19:57.754Z,34.30
2022-11-08T09:22:27.111Z,35.50
2022-11-08T09:24:58.463Z,39.10
2022-11-08T09:27:29.146Z,34.00
2022-11-08T09:29:57.533Z,24.80
2022-11-08T09:32:46.324Z,21.30
2022-11-08T09:35:18.080Z,27.70
2022-11-08T09:37:49.749Z,25.90
2022-11-08T09:40:23.895Z,19.80
2022-11-08T09:43:03.465Z,15.30
2022-11-08T09:45:36.940Z,19.60
2022-11-08T09:48:07.177Z,17.30
2022-11-08T09:50:39.679Z,9.30
2022-11-08T09:53:17.988Z,9.00
2022-11-08T09:55:51.195Z,10.00
2022-11-08T09:58:24.410Z,9.10
2022-11-08T10:00:52.946Z,8.90
2022-11-08T10:03:23.151Z,8.50
2022-11-08T10:06:06.159Z,9.90
2022-11-08T10:08:41.922Z,8.40
2022-11-08T10:11:32.812Z,7.60
2022-11-08T10:14:13.810Z,9.90
2022-11-08T10:16:48.545Z,8.40
2022-11-08T10:19:36.039Z,14.10
2022-11-08T10:22:12.020Z,10.20
2022-11-08T10:24:47.865Z,16.00
2022-11-08T10:27:26.006Z,8.20
2022-11-08T10:30:00.466Z,10.20
2022-11-08T10:32:31.774Z,9.50
2022-11-08T10:35:07.333Z,10.80
2022-11-08T10:37:35.871Z,9.80
2022-11-08T10:40:18.309Z,10.60
2022-11-08T10:42:50.397Z,8.80
2022-11-08T10:45:18.944Z,10.30
2022-11-08T10:47:48.158Z,10.20
2022-11-08T10:50:19.367Z,9.80
2022-11-08T10:52:55.248Z,10.50
2022-11-08T10:55:30.378Z,20.50
2022-11-08T10:57:59.701Z,10.20
2022-11-08T11:00:31.211Z,9.30
2022-11-08T11:03:02.841Z,10.70
2022-11-08T11:05:34.129Z,11.40
2022-11-08T11:08:18.475Z,15.00
2022-11-08T11:10:49.271Z,9.70
2022-11-08T11:13:22.923Z,9.40
2022-11-08T11:15:53.562Z,12.00
2022-11-08T11:18:28.961Z,8.90
2022-11-08T11:21:09.049Z,8.00
2022-11-08T11:23:41.545Z,9.40
2022-11-08T11:26:19.350Z,8.70
2022-11-08T11:29:06.274Z,7.30
2022-11-08T11:31:36.813Z,6.70
2022-11-08T11:34:25.417Z,8.80
2022-11-08T11:36:57.232Z,7.50
2022-11-08T11:39:31.600Z,5.00
2022-11-08T11:42:24.011Z,7.10
2022-11-08T11:45:03.600Z,7.80
2022-11-08T11:47:36.053Z,7.30
2022-11-08T11:50:12.741Z,7.90
2022-11-08T11:52:42.229Z,6.50
2022-11-08T11:55:15.520Z,7.80
2022-11-08T11:57:52.162Z,6.70
2022-11-08T12:00:20.887Z,5.80
2022-11-08T12:03:06.029Z,4.80
2022-11-08T12:05:42.353Z,5.40
2022-11-08T12:08:24.768Z,4.90
2022-11-08T12:11:08.180Z,5.50
2022-11-08T12:13:53.997Z,6.80
2022-11-08T12:16:27.450Z,8.90
2022-11-08T12:19:05.583Z,4.00
2022-11-08T12:21:41.055Z,5.70
2022-11-08T12:24:21.498Z,5.70
2022-11-08T12:27:01.023Z,3.70
2022-11-08T12:29:32.629Z,4.50
2022-11-08T12:32:51.816Z,4.60
2022-11-08T12:35:31.911Z,4.30
2022-11-08T12:38:14.671Z,3.50
2022-11-08T12:40:51.594Z,4.60
2022-11-08T12:43:40.382Z,5.10
2022-11-08T12:46:12.427Z,4.30
2022-11-08T12:49:10.576Z,3.40
2022-11-08T12:51:51.883Z,3.20
2022-11-08T12:54:27.038Z,4.00
2022-11-08T12:56:58.204Z,3.60
2022-11-08T12:59:31.160Z,4.40
2022-11-08T13:02:02.461Z,4.30
2022-11-08T13:04:50.608Z,6.20
2022-11-08T13:07:26.871Z,3.90
2022-11-08T13:10:03.584Z,5.70
2022-11-08T13:12:40.365Z,5.20
2022-11-08T13:15:17.554Z,6.60
2022-11-08T13:18:17.928Z,6.60
2022-11-08T13:20:47.798Z,9.60
2022-11-08T13:23:20.929Z,2.80
2022-11-08T13:25:49.606Z,7.30
2022-11-08T13:28:38.744Z,6.60
2022-11-08T13:31:18.781Z,3.80
2022-11-08T13:33:56.192Z,5.90
2022-11-08T13:36:33.246Z,4.80
2022-11-08T13:39:30.308Z,4.60
2022-11-08T13:42:04.378Z,5.50
2022-11-08T13:44:58.207Z,9.60
2022-11-08T13:47:57.278Z,6.40
2022-11-08T13:51:00.891Z,6.30
2022-11-08T13:53:57.130Z,6.10
2022-11-08T13:56:41.651Z,5.00
2022-11-08T13:59:53.378Z,5.30
2022-11-08T14:02:34.883Z,4.40
2022-11-08T14:05:27.658Z,14.50
2022-11-08T14:08:20.243Z,12.90
2022-11-08T14:11:25.023Z,6.10
2022-11-08T14:14:33.337Z,14.30
2022-11-08T14:17:09.463Z,4.10
2022-11-08T14:19:39.561Z,12.10
2022-11-08T14:22:14.338Z,6.00
2022-11-08T14:24:43.144Z,22.90
2022-11-08T14:27:13.660Z,7.90
2022-11-08T14:29:42.142Z,11.80
2022-11-08T14:32:18.481Z,10.50
2022-11-08T14:34:47.081Z,10.20
2022-11-08T14:37:20.944Z,12.10
2022-11-08T14:39:49.430Z,14.30
2022-11-08T14:42:21.997Z,12.60
2022-11-08T14:44:53.036Z,123.10
2022-11-08T14:47:25.868Z,103.20
2022-11-08T14:49:54.676Z,56.80
2022-11-08T14:52:27.671Z,28.90
2022-11-08T14:55:03.354Z,43.10
2022-11-08T14:57:33.779Z,63.70
2022-11-08T15:00:06.378Z,82.10
2022-11-08T15:02:36.515Z,51.90
2022-11-08T15:05:27.110Z,28.20
2022-11-08T15:07:55.691Z,19.60
2022-11-08T15:10:24.221Z,14.20
2022-11-08T15:12:53.017Z,18.10
2022-11-08T15:15:24.033Z,13.60
2022-11-08T15:18:11.631Z,15.90
2022-11-08T15:20:40.709Z,12.70
2022-11-08T15:23:30.813Z,10.70
2022-11-08T15:26:00.339Z,10.80
2022-11-08T15:28:33.270Z,15.00
2022-11-08T15:31:03.370Z,14.40
2022-11-08T15:33:35.969Z,13.50
2022-11-08T15:36:11.918Z,15.90
2022-11-08T15:38:40.991Z,26.30
2022-11-08T15:41:30.611Z,16.80
2022-11-08T15:44:14.081Z,20.80
2022-11-08T15:46:42.790Z,45.70
2022-11-08T15:49:16.444Z,27.90
2022-11-08T15:51:44.853Z,34.90
2022-11-08T15:54:13.227Z,28.90
2022-11-08T15:56:42.058Z,27.40
2022-11-08T15:59:18.599Z,32.70
2022-11-08T16:01:54.759Z,36.30
2022-11-08T16:04:23.324Z,30.70
2022-11-08T16:06:52.015Z,35.40
2022-11-08T16:09:20.517Z,46.10
2022-11-08T16:11:49.190Z,55.50
2022-11-08T16:14:19.736Z,65.90
2022-11-08T16:16:48.196Z,54.50
2022-11-08T16:19:20.875Z,47.10
2022-11-08T16:21:50.357Z,53.80
2022-11-08T16:24:19.231Z,85.40
2022-11-08T16:26:48.779Z,65.00
2022-11-08T16:29:20.102Z,52.50
2022-11-08T16:31:51.555Z,50.50
2022-11-08T16:34:20.158Z,58.60
2022-11-08T16:36:49.693Z,58.70
2022-11-08T16:39:19.364Z,57.60
2022-11-08T16:41:48.091Z,51.50
2022-11-08T16:44:17.464Z,50.60
2022-11-08T16:46:45.926Z,53.20
2022-11-08T16:49:20.794Z,50.20
2022-11-08T16:51:49.482Z,54.50
2022-11-08T16:54:19.606Z,52.70
2022-11-08T16:56:47.951Z,47.30
2022-11-08T16:59:16.381Z,54.90
2022-11-08T17:01:44.859Z,51.10
2022-11-08T17:04:13.397Z,57.10
2022-11-08T17:06:41.991Z,74.50
2022-11-08T17:09:10.355Z,66.80
2022-11-08T17:11:39.323Z,107.10
2022-11-08T17:14:09.377Z,91.00
2022-11-08T17:16:37.989Z,83.00
2022-11-08T17:19:06.442Z,107.20
2022-11-08T17:21:50.332Z,73.40
2022-11-08T17:24:22.040Z,47.00
2022-11-08T17:26:51.056Z,161.70
2022-11-08T17:29:19.852Z,246.80
2022-11-08T17:31:48.748Z,122.40
2022-11-08T17:34:17.262Z,124.70
2022-11-08T17:36:45.786Z,54.30
2022-11-08T17:39:14.632Z,47.60
2022-11-08T17:41:43.192Z,46.70
2022-11-08T17:44:12.537Z,54.20
2022-11-08T17:46:40.936Z,76.70
2022-11-08T17:49:10.079Z,120.00
2022-11-08T17:51:38.514Z,93.20
2022-11-08T17:54:14.418Z,61.00
2022-11-08T17:56:44.196Z,108.50
2022-11-08T17:59:12.784Z,99.60
2022-11-08T18:01:41.329Z,95.80
2022-11-08T18:04:11.122Z,63.90
2022-11-08T18:06:39.625Z,109.90
2022-11-08T18:09:09.770Z,110.10
2022-11-08T18:11:39.249Z,145.40
2022-11-08T18:14:09.177Z,144.80
2022-11-08T18:16:37.645Z,133.00
2022-11-08T18:19:06.121Z,141.00
2022-11-08T18:21:34.631Z,76.70
2022-11-08T18:24:04.517Z,90.10
2022-11-08T18:26:33.237Z,212.20
2022-11-08T18:29:04.217Z,140.70
2022-11-08T18:31:32.813Z,141.00
2022-11-08T18:34:01.934Z,167.90
2022-11-08T18:36:31.289Z,121.30
2022-11-08T18:39:01.960Z,102.30
2022-11-08T18:41:33.328Z,102.10
2022-11-08T18:44:03.059Z,103.00
2022-11-08T18:46:36.538Z,58.40
2022-11-08T18:49:08.033Z,86.50
2022-11-08T18:51:37.078Z,72.60
2022-11-08T18:54:05.703Z,69.00
2022-11-08T18:56:34.295Z,90.40
2022-11-08T18:59:03.740Z,73.90
2022-11-08T19:01:32.394Z,70.40
2022-11-08T19:04:01.044Z,61.20
2022-11-08T19:06:30.005Z,60.40
2022-11-08T19:08:58.561Z,59.40
2022-11-08T19:11:30.690Z,72.40
2022-11-08T19:14:02.796Z,84.70
2022-11-08T19:16:32.664Z,90.00
2022-11-08T19:19:04.629Z,118.50
2022-11-08T19:21:37.860Z,85.60
2022-11-08T19:24:10.426Z,142.90
2022-11-08T19:26:40.665Z,127.30
2022-11-08T19:29:11.661Z,83.70
2022-11-08T19:31:46.744Z,104.80
2022-11-08T19:34:16.687Z,183.40
2022-11-08T19:36:52.683Z,64.80
2022-11-08T19:39:25.395Z,61.10
2022-11-08T19:41:56.718Z,52.30
2022-11-08T19:44:28.031Z,53.00
2022-11-08T19:47:01.963Z,49.00
2022-11-08T19:49:31.772Z,52.20
2022-11-08T19:52:01.808Z,52.30
2022-11-08T19:54:33.745Z,92.70
2022-11-08T19:57:06.456Z,88.70
2022-11-08T19:59:45.455Z,68.40
2022-11-08T20:02:22.169Z,75.10
2022-11-08T20:04:52.002Z,65.00
2022-11-08T20:07:28.023Z,53.30
2022-11-08T20:09:58.692Z,55.90
2022-11-08T20:19:50.019Z,62.10
2022-11-08T20:22:22.374Z,59.90
2022-11-08T20:24:54.274Z,66.80
2022-11-08T20:27:27.987Z,60.90
2022-11-08T20:30:00.477Z,59.30
2022-11-08T20:32:33.712Z,59.10
2022-11-08T20:35:06.228Z,59.90
2022-11-08T20:37:44.397Z,59.90
2022-11-08T20:40:16.537Z,61.40
2022-11-08T20:42:50.406Z,63.40
2022-11-08T20:45:23.443Z,62.00
2022-11-08T20:47:55.348Z,61.20
2022-11-08T20:50:28.084Z,58.00
2022-11-08T20:53:00.759Z,59.70
2022-11-08T20:55:33.436Z,69.50
2022-11-08T20:58:07.893Z,61.70
2022-11-08T21:00:57.980Z,62.80
2022-11-08T21:03:36.161Z,60.70
2022-11-08T21:06:10.145Z,59.30
2022-11-08T21:09:03.316Z,60.80
2022-11-08T21:11:37.395Z,61.20
2022-11-08T21:14:10.052Z,57.20
2022-11-08T21:17:14.673Z,57.70
2022-11-08T21:19:35.558Z,53.90
2022-11-08T21:22:19.802Z,52.90
2022-11-08T21:24:52.826Z,65.10
2022-11-08T21:27:29.612Z,56.70
2022-11-08T21:30:03.384Z,55.30
2022-11-08T21:32:37.955Z,56.00
2022-11-08T21:35:11.064Z,53.60
2022-11-08T21:37:43.154Z,53.70
2022-11-08T21:40:16.365Z,61.10
2022-11-08T21:42:50.191Z,62.40
2022-11-08T21:45:22.919Z,57.90
2022-11-08T21:47:56.623Z,57.30
2022-11-08T21:50:30.070Z,56.10
2022-11-08T21:53:04.044Z,54.70
2022-11-08T21:55:36.628Z,56.50
2022-11-08T21:58:09.466Z,57.60
2022-11-08T22:00:42.295Z,57.80
2022-11-08T22:03:15.583Z,56.20
2022-11-08T22:05:49.105Z,55.40
2022-11-08T22:08:22.341Z,70.00
2022-11-08T22:10:55.496Z,59.10
2022-11-08T22:13:29.784Z,58.70
2022-11-08T22:16:02.567Z,68.20
2022-11-08T22:21:41.700Z,61.40
2022-11-08T22:24:17.206Z,62.00
2022-11-08T22:26:53.799Z,61.00
2022-11-08T22:29:26.518Z,59.60
2022-11-08T22:31:59.452Z,63.20
2022-11-08T22:34:33.473Z,62.30
2022-11-08T22:37:06.666Z,66.70
2022-11-08T22:39:40.056Z,68.60
2022-11-08T22:42:12.162Z,68.10
2022-11-08T22:44:46.972Z,65.20
2022-11-08T22:47:20.062Z,65.80
2022-11-08T22:49:52.521Z,65.40
2022-11-08T22:52:25.070Z,72.20
2022-11-08T22:55:01.204Z,68.10
2022-11-08T23:04:53.571Z,70.80
2022-11-08T23:07:25.869Z,75.50
2022-11-08T23:09:58.190Z,75.70
2022-11-08T23:12:48.517Z,75.30
2022-11-08T23:15:50.449Z,78.80
2022-11-08T23:18:23.867Z,80.30
2022-11-08T23:21:32.861Z,80.50
2022-11-08T23:24:22.178Z,79.80
2022-11-08T23:27:12.180Z,75.10
2022-11-08T23:30:02.569Z,74.40
2022-11-08T23:32:42.310Z,72.90
2022-11-08T23:35:17.486Z,71.10
2022-11-08T23:37:50.284Z,74.20
2022-11-08T23:40:50.601Z,76.20
2022-11-08T23:43:42.093Z,71.40
2022-11-08T23:46:15.858Z,74.10
2022-11-08T23:48:47.798Z,75.20
2022-11-08T23:51:20.352Z,75.20
2022-11-08T23:53:53.760Z,76.50
2022-11-08T23:56:29.131Z,74.50
2022-11-08T23:59:04.186Z,74.90
